sensor_id;sensor_type;location;lat;lon;timestamp;P1;durP1;ratioP1;P2;durP2;ratioP2
54539;SDS011;40438;52.992;18.604;2023-07-13T00:02:06;13.88;;;8.70;;
54539;SDS011;40438;52.992;18.604;2023-07-13T00:04:34;14.10;;;8.73;;
54539;SDS011;40438;52.992;18.604;2023-07-13T00:07:00;14.02;;;9.10;;
54539;SDS011;40438;52.992;18.604;2023-07-13T00:09:25;15.00;;;8.88;;
54539;SDS011;40438;52.992;18.604;2023-07-13T00:11:52;12.13;;;8.73;;
54539;SDS011;40438;52.992;18.604;2023-07-13T00:14:20;14.48;;;9.13;;
54539;SDS011;40438;52.992;18.604;2023-07-13T00:16:46;13.70;;;9.05;;
54539;SDS011;40438;52.992;18.604;2023-07-13T00:19:13;13.75;;;8.68;;
54539;SDS011;40438;52.992;18.604;2023-07-13T00:21:40;12.73;;;8.70;;
54539;SDS011;40438;52.992;18.604;2023-07-13T00:24:07;13.77;;;8.18;;
54539;SDS011;40438;52.992;18.604;2023-07-13T00:26:35;12.98;;;8.73;;
54539;SDS011;40438;52.992;18.604;2023-07-13T00:29:02;15.80;;;8.80;;
54539;SDS011;40438;52.992;18.604;2023-07-13T00:31:28;15.40;;;9.30;;
54539;SDS011;40438;52.992;18.604;2023-07-13T00:33:54;15.65;;;8.45;;
54539;SDS011;40438;52.992;18.604;2023-07-13T00:36:20;11.88;;;8.18;;
54539;SDS011;40438;52.992;18.604;2023-07-13T00:38:47;13.18;;;8.50;;
54539;SDS011;40438;52.992;18.604;2023-07-13T00:41:13;13.73;;;8.15;;
54539;SDS011;40438;52.992;18.604;2023-07-13T00:43:39;17.17;;;8.27;;
54539;SDS011;40438;52.992;18.604;2023-07-13T00:46:11;13.43;;;7.75;;
54539;SDS011;40438;52.992;18.604;2023-07-13T00:48:41;10.02;;;7.93;;
54539;SDS011;40438;52.992;18.604;2023-07-13T00:51:10;11.98;;;7.80;;
54539;SDS011;40438;52.992;18.604;2023-07-13T00:53:39;15.43;;;8.70;;
54539;SDS011;40438;52.992;18.604;2023-07-13T00:56:07;11.50;;;7.80;;
54539;SDS011;40438;52.992;18.604;2023-07-13T00:58:34;11.18;;;7.95;;
54539;SDS011;40438;52.992;18.604;2023-07-13T01:01:02;11.95;;;8.93;;
54539;SDS011;40438;52.992;18.604;2023-07-13T01:03:28;12.48;;;8.40;;
54539;SDS011;40438;52.992;18.604;2023-07-13T01:05:54;16.17;;;8.68;;
54539;SDS011;40438;52.992;18.604;2023-07-13T01:08:21;15.15;;;8.23;;
54539;SDS011;40438;52.992;18.604;2023-07-13T01:10:51;13.23;;;8.68;;
54539;SDS011;40438;52.992;18.604;2023-07-13T01:13:19;13.07;;;9.73;;
54539;SDS011;40438;52.992;18.604;2023-07-13T01:15:45;12.25;;;8.95;;
54539;SDS011;40438;52.992;18.604;2023-07-13T01:18:14;15.55;;;9.45;;
54539;SDS011;40438;52.992;18.604;2023-07-13T01:20:41;13.52;;;9.45;;
54539;SDS011;40438;52.992;18.604;2023-07-13T01:23:13;16.30;;;8.88;;
54539;SDS011;40438;52.992;18.604;2023-07-13T01:25:39;14.20;;;9.68;;
54539;SDS011;40438;52.992;18.604;2023-07-13T01:28:05;15.88;;;9.30;;
54539;SDS011;40438;52.992;18.604;2023-07-13T01:30:32;14.18;;;9.20;;
54539;SDS011;40438;52.992;18.604;2023-07-13T01:32:57;12.02;;;8.57;;
54539;SDS011;40438;52.992;18.604;2023-07-13T01:35:25;11.88;;;8.32;;
54539;SDS011;40438;52.992;18.604;2023-07-13T01:37:52;15.02;;;9.15;;
54539;SDS011;40438;52.992;18.604;2023-07-13T01:40:19;11.52;;;8.43;;
54539;SDS011;40438;52.992;18.604;2023-07-13T01:42:45;17.58;;;9.68;;
54539;SDS011;40438;52.992;18.604;2023-07-13T01:45:10;12.38;;;8.57;;
54539;SDS011;40438;52.992;18.604;2023-07-13T01:47:36;13.15;;;9.02;;
54539;SDS011;40438;52.992;18.604;2023-07-13T01:50:02;13.05;;;9.35;;
54539;SDS011;40438;52.992;18.604;2023-07-13T01:52:28;15.43;;;10.30;;
54539;SDS011;40438;52.992;18.604;2023-07-13T01:54:55;16.20;;;10.07;;
54539;SDS011;40438;52.992;18.604;2023-07-13T01:57:21;16.10;;;9.57;;
54539;SDS011;40438;52.992;18.604;2023-07-13T01:59:47;12.20;;;8.75;;
54539;SDS011;40438;52.992;18.604;2023-07-13T02:02:13;15.90;;;9.30;;
54539;SDS011;40438;52.992;18.604;2023-07-13T02:04:39;14.82;;;9.85;;
54539;SDS011;40438;52.992;18.604;2023-07-13T02:07:05;14.15;;;9.82;;
54539;SDS011;40438;52.992;18.604;2023-07-13T02:09:31;14.05;;;9.65;;
54539;SDS011;40438;52.992;18.604;2023-07-13T02:11:58;15.27;;;9.88;;
54539;SDS011;40438;52.992;18.604;2023-07-13T02:14:30;12.13;;;9.32;;
54539;SDS011;40438;52.992;18.604;2023-07-13T02:16:55;12.88;;;9.85;;
54539;SDS011;40438;52.992;18.604;2023-07-13T02:19:21;20.70;;;13.45;;
54539;SDS011;40438;52.992;18.604;2023-07-13T02:21:47;18.83;;;12.20;;
54539;SDS011;40438;52.992;18.604;2023-07-13T02:24:13;17.35;;;11.27;;
54539;SDS011;40438;52.992;18.604;2023-07-13T02:26:41;16.73;;;11.30;;
54539;SDS011;40438;52.992;18.604;2023-07-13T02:29:08;13.15;;;10.43;;
54539;SDS011;40438;52.992;18.604;2023-07-13T02:31:34;15.40;;;10.68;;
54539;SDS011;40438;52.992;18.604;2023-07-13T02:34:00;14.93;;;10.23;;
54539;SDS011;40438;52.992;18.604;2023-07-13T02:36:26;14.32;;;10.13;;
54539;SDS011;40438;52.992;18.604;2023-07-13T02:38:51;15.35;;;10.77;;
54539;SDS011;40438;52.992;18.604;2023-07-13T02:41:17;13.70;;;9.93;;
54539;SDS011;40438;52.992;18.604;2023-07-13T02:43:44;14.85;;;10.25;;
54539;SDS011;40438;52.992;18.604;2023-07-13T02:46:11;20.48;;;10.77;;
54539;SDS011;40438;52.992;18.604;2023-07-13T02:48:37;15.75;;;10.20;;
54539;SDS011;40438;52.992;18.604;2023-07-13T02:51:04;19.77;;;10.63;;
54539;SDS011;40438;52.992;18.604;2023-07-13T02:53:30;16.55;;;11.23;;
54539;SDS011;40438;52.992;18.604;2023-07-13T02:55:56;16.40;;;10.73;;
54539;SDS011;40438;52.992;18.604;2023-07-13T02:58:22;16.85;;;10.35;;
54539;SDS011;40438;52.992;18.604;2023-07-13T03:00:48;16.38;;;11.43;;
54539;SDS011;40438;52.992;18.604;2023-07-13T03:03:15;14.43;;;10.75;;
54539;SDS011;40438;52.992;18.604;2023-07-13T03:05:43;14.05;;;10.20;;
54539;SDS011;40438;52.992;18.604;2023-07-13T03:08:10;19.27;;;10.85;;
54539;SDS011;40438;52.992;18.604;2023-07-13T03:10:36;17.77;;;11.07;;
54539;SDS011;40438;52.992;18.604;2023-07-13T03:13:03;13.82;;;10.23;;
54539;SDS011;40438;52.992;18.604;2023-07-13T03:15:29;16.30;;;11.50;;
54539;SDS011;40438;52.992;18.604;2023-07-13T03:17:56;15.35;;;10.38;;
54539;SDS011;40438;52.992;18.604;2023-07-13T03:20:24;15.90;;;10.77;;
54539;SDS011;40438;52.992;18.604;2023-07-13T03:22:50;15.07;;;10.65;;
54539;SDS011;40438;52.992;18.604;2023-07-13T03:25:17;15.30;;;10.50;;
54539;SDS011;40438;52.992;18.604;2023-07-13T03:27:42;15.65;;;11.68;;
54539;SDS011;40438;52.992;18.604;2023-07-13T03:30:09;15.68;;;11.02;;
54539;SDS011;40438;52.992;18.604;2023-07-13T03:32:36;16.42;;;11.27;;
54539;SDS011;40438;52.992;18.604;2023-07-13T03:35:01;19.65;;;10.95;;
54539;SDS011;40438;52.992;18.604;2023-07-13T03:37:31;18.15;;;11.73;;
54539;SDS011;40438;52.992;18.604;2023-07-13T03:39:57;15.70;;;11.05;;
54539;SDS011;40438;52.992;18.604;2023-07-13T03:42:25;14.93;;;10.82;;
54539;SDS011;40438;52.992;18.604;2023-07-13T03:44:50;18.58;;;11.35;;
54539;SDS011;40438;52.992;18.604;2023-07-13T03:47:16;18.50;;;11.10;;
54539;SDS011;40438;52.992;18.604;2023-07-13T03:49:43;19.17;;;11.95;;
54539;SDS011;40438;52.992;18.604;2023-07-13T03:52:09;18.50;;;12.13;;
54539;SDS011;40438;52.992;18.604;2023-07-13T03:54:36;18.58;;;11.43;;
54539;SDS011;40438;52.992;18.604;2023-07-13T03:57:02;20.20;;;12.30;;
54539;SDS011;40438;52.992;18.604;2023-07-13T03:59:31;18.75;;;11.40;;
54539;SDS011;40438;52.992;18.604;2023-07-13T04:01:57;19.20;;;11.27;;
54539;SDS011;40438;52.992;18.604;2023-07-13T04:04:23;17.77;;;10.70;;
54539;SDS011;40438;52.992;18.604;2023-07-13T04:06:48;15.70;;;11.13;;
54539;SDS011;40438;52.992;18.604;2023-07-13T04:09:14;15.48;;;11.05;;
54539;SDS011;40438;52.992;18.604;2023-07-13T04:11:42;15.23;;;10.85;;
54539;SDS011;40438;52.992;18.604;2023-07-13T04:14:08;14.57;;;10.35;;
54539;SDS011;40438;52.992;18.604;2023-07-13T04:16:34;17.92;;;10.52;;
54539;SDS011;40438;52.992;18.604;2023-07-13T04:19:00;15.63;;;10.55;;
54539;SDS011;40438;52.992;18.604;2023-07-13T04:21:26;13.52;;;9.70;;
54539;SDS011;40438;52.992;18.604;2023-07-13T04:23:52;15.32;;;9.63;;
54539;SDS011;40438;52.992;18.604;2023-07-13T04:26:18;15.50;;;10.75;;
54539;SDS011;40438;52.992;18.604;2023-07-13T04:28:45;15.30;;;10.32;;
54539;SDS011;40438;52.992;18.604;2023-07-13T04:31:11;13.88;;;11.00;;
54539;SDS011;40438;52.992;18.604;2023-07-13T04:33:36;16.98;;;10.85;;
54539;SDS011;40438;52.992;18.604;2023-07-13T04:36:02;19.45;;;10.68;;
54539;SDS011;40438;52.992;18.604;2023-07-13T04:38:29;14.50;;;10.30;;
54539;SDS011;40438;52.992;18.604;2023-07-13T04:40:56;13.40;;;10.25;;
54539;SDS011;40438;52.992;18.604;2023-07-13T04:43:23;15.30;;;10.70;;
54539;SDS011;40438;52.992;18.604;2023-07-13T04:45:51;14.57;;;10.25;;
54539;SDS011;40438;52.992;18.604;2023-07-13T04:48:17;19.25;;;10.75;;
54539;SDS011;40438;52.992;18.604;2023-07-13T04:50:43;12.35;;;10.20;;
54539;SDS011;40438;52.992;18.604;2023-07-13T04:53:09;17.73;;;10.68;;
54539;SDS011;40438;52.992;18.604;2023-07-13T04:55:35;18.15;;;10.80;;
54539;SDS011;40438;52.992;18.604;2023-07-13T04:58:01;19.67;;;11.15;;
54539;SDS011;40438;52.992;18.604;2023-07-13T05:00:27;15.43;;;10.77;;
54539;SDS011;40438;52.992;18.604;2023-07-13T05:02:55;14.77;;;10.27;;
54539;SDS011;40438;52.992;18.604;2023-07-13T05:05:21;17.65;;;10.60;;
54539;SDS011;40438;52.992;18.604;2023-07-13T05:07:47;29.15;;;10.80;;
54539;SDS011;40438;52.992;18.604;2023-07-13T05:10:13;13.20;;;10.98;;
54539;SDS011;40438;52.992;18.604;2023-07-13T05:12:39;16.00;;;10.73;;
54539;SDS011;40438;52.992;18.604;2023-07-13T05:15:05;17.80;;;10.68;;
54539;SDS011;40438;52.992;18.604;2023-07-13T05:17:32;15.45;;;10.70;;
54539;SDS011;40438;52.992;18.604;2023-07-13T05:19:59;17.85;;;11.52;;
54539;SDS011;40438;52.992;18.604;2023-07-13T05:22:25;14.32;;;9.68;;
54539;SDS011;40438;52.992;18.604;2023-07-13T05:24:51;11.48;;;9.00;;
54539;SDS011;40438;52.992;18.604;2023-07-13T05:27:16;16.63;;;10.15;;
54539;SDS011;40438;52.992;18.604;2023-07-13T05:29:42;11.82;;;9.02;;
54539;SDS011;40438;52.992;18.604;2023-07-13T05:32:08;16.60;;;9.98;;
54539;SDS011;40438;52.992;18.604;2023-07-13T05:34:34;13.25;;;8.57;;
54539;SDS011;40438;52.992;18.604;2023-07-13T05:37:01;13.52;;;8.80;;
54539;SDS011;40438;52.992;18.604;2023-07-13T05:39:27;14.00;;;8.93;;
54539;SDS011;40438;52.992;18.604;2023-07-13T05:41:52;15.32;;;8.48;;
54539;SDS011;40438;52.992;18.604;2023-07-13T05:44:18;14.90;;;7.75;;
54539;SDS011;40438;52.992;18.604;2023-07-13T05:46:44;11.95;;;7.60;;
54539;SDS011;40438;52.992;18.604;2023-07-13T05:49:10;13.13;;;6.82;;
54539;SDS011;40438;52.992;18.604;2023-07-13T05:51:36;12.98;;;7.72;;
54539;SDS011;40438;52.992;18.604;2023-07-13T05:54:03;12.55;;;6.75;;
54539;SDS011;40438;52.992;18.604;2023-07-13T05:56:29;10.15;;;6.68;;
54539;SDS011;40438;52.992;18.604;2023-07-13T05:58:55;13.13;;;6.75;;
54539;SDS011;40438;52.992;18.604;2023-07-13T06:01:21;11.80;;;5.85;;
54539;SDS011;40438;52.992;18.604;2023-07-13T06:03:47;16.25;;;6.00;;
54539;SDS011;40438;52.992;18.604;2023-07-13T06:06:13;11.93;;;5.80;;
54539;SDS011;40438;52.992;18.604;2023-07-13T06:08:39;13.25;;;5.72;;
54539;SDS011;40438;52.992;18.604;2023-07-13T06:11:06;11.23;;;4.50;;
54539;SDS011;40438;52.992;18.604;2023-07-13T06:13:35;11.30;;;4.93;;
54539;SDS011;40438;52.992;18.604;2023-07-13T06:16:01;9.75;;;5.10;;
54539;SDS011;40438;52.992;18.604;2023-07-13T06:18:27;11.35;;;4.80;;
54539;SDS011;40438;52.992;18.604;2023-07-13T06:20:53;8.05;;;4.55;;
54539;SDS011;40438;52.992;18.604;2023-07-13T06:23:19;8.68;;;4.03;;
54539;SDS011;40438;52.992;18.604;2023-07-13T06:25:45;8.98;;;4.47;;
54539;SDS011;40438;52.992;18.604;2023-07-13T06:28:12;10.88;;;4.78;;
54539;SDS011;40438;52.992;18.604;2023-07-13T06:30:38;8.15;;;4.90;;
54539;SDS011;40438;52.992;18.604;2023-07-13T06:33:03;9.07;;;5.05;;
54539;SDS011;40438;52.992;18.604;2023-07-13T06:35:29;12.48;;;4.82;;
54539;SDS011;40438;52.992;18.604;2023-07-13T06:37:55;8.60;;;4.38;;
54539;SDS011;40438;52.992;18.604;2023-07-13T06:40:21;7.20;;;4.45;;
54539;SDS011;40438;52.992;18.604;2023-07-13T06:42:46;15.43;;;4.55;;
54539;SDS011;40438;52.992;18.604;2023-07-13T06:45:14;9.13;;;4.20;;
54539;SDS011;40438;52.992;18.604;2023-07-13T06:47:39;8.10;;;3.88;;
54539;SDS011;40438;52.992;18.604;2023-07-13T06:50:05;8.30;;;4.00;;
54539;SDS011;40438;52.992;18.604;2023-07-13T06:52:31;8.10;;;3.60;;
54539;SDS011;40438;52.992;18.604;2023-07-13T06:54:57;8.85;;;3.25;;
54539;SDS011;40438;52.992;18.604;2023-07-13T06:57:23;7.20;;;3.53;;
54539;SDS011;40438;52.992;18.604;2023-07-13T06:59:49;8.00;;;3.47;;
54539;SDS011;40438;52.992;18.604;2023-07-13T07:02:16;8.82;;;3.20;;
54539;SDS011;40438;52.992;18.604;2023-07-13T07:04:42;8.07;;;3.08;;
54539;SDS011;40438;52.992;18.604;2023-07-13T07:07:08;8.23;;;3.30;;
54539;SDS011;40438;52.992;18.604;2023-07-13T07:09:33;8.82;;;3.75;;
54539;SDS011;40438;52.992;18.604;2023-07-13T07:11:59;5.93;;;2.90;;
54539;SDS011;40438;52.992;18.604;2023-07-13T07:14:25;8.95;;;3.03;;
54539;SDS011;40438;52.992;18.604;2023-07-13T07:16:51;13.40;;;3.83;;
54539;SDS011;40438;52.992;18.604;2023-07-13T07:19:18;8.48;;;3.17;;
54539;SDS011;40438;52.992;18.604;2023-07-13T07:21:43;7.68;;;3.13;;
54539;SDS011;40438;52.992;18.604;2023-07-13T07:24:09;10.90;;;3.45;;
54539;SDS011;40438;52.992;18.604;2023-07-13T07:26:35;9.23;;;3.30;;
54539;SDS011;40438;52.992;18.604;2023-07-13T07:29:01;6.00;;;3.33;;
54539;SDS011;40438;52.992;18.604;2023-07-13T07:31:27;14.05;;;3.55;;
54539;SDS011;40438;52.992;18.604;2023-07-13T07:33:52;6.93;;;3.00;;
54539;SDS011;40438;52.992;18.604;2023-07-13T07:36:19;4.85;;;2.80;;
54539;SDS011;40438;52.992;18.604;2023-07-13T07:38:45;7.53;;;2.95;;
54539;SDS011;40438;52.992;18.604;2023-07-13T07:41:13;5.80;;;2.45;;
54539;SDS011;40438;52.992;18.604;2023-07-13T07:43:39;6.75;;;3.20;;
54539;SDS011;40438;52.992;18.604;2023-07-13T07:46:04;9.90;;;3.17;;
54539;SDS011;40438;52.992;18.604;2023-07-13T07:48:30;5.68;;;2.28;;
54539;SDS011;40438;52.992;18.604;2023-07-13T07:50:56;5.43;;;2.60;;
54539;SDS011;40438;52.992;18.604;2023-07-13T07:53:23;11.27;;;2.75;;
54539;SDS011;40438;52.992;18.604;2023-07-13T07:55:49;6.28;;;2.85;;
54539;SDS011;40438;52.992;18.604;2023-07-13T07:58:15;4.70;;;2.20;;
54539;SDS011;40438;52.992;18.604;2023-07-13T08:00:41;4.40;;;2.80;;
54539;SDS011;40438;52.992;18.604;2023-07-13T08:03:07;6.22;;;2.30;;
54539;SDS011;40438;52.992;18.604;2023-07-13T08:05:34;12.82;;;2.85;;
54539;SDS011;40438;52.992;18.604;2023-07-13T08:08:01;8.05;;;2.60;;
54539;SDS011;40438;52.992;18.604;2023-07-13T08:10:28;9.82;;;2.58;;
54539;SDS011;40438;52.992;18.604;2023-07-13T08:12:54;4.68;;;2.08;;
54539;SDS011;40438;52.992;18.604;2023-07-13T08:15:20;6.78;;;2.45;;
54539;SDS011;40438;52.992;18.604;2023-07-13T08:17:46;3.83;;;2.25;;
54539;SDS011;40438;52.992;18.604;2023-07-13T08:20:12;6.60;;;2.60;;
54539;SDS011;40438;52.992;18.604;2023-07-13T08:22:38;8.25;;;2.95;;
54539;SDS011;40438;52.992;18.604;2023-07-13T08:25:04;11.38;;;2.97;;
54539;SDS011;40438;52.992;18.604;2023-07-13T08:27:32;6.72;;;2.55;;
54539;SDS011;40438;52.992;18.604;2023-07-13T08:29:58;4.35;;;2.60;;
54539;SDS011;40438;52.992;18.604;2023-07-13T08:32:24;8.98;;;2.88;;
54539;SDS011;40438;52.992;18.604;2023-07-13T08:34:50;6.93;;;3.33;;
54539;SDS011;40438;52.992;18.604;2023-07-13T08:37:16;7.55;;;2.70;;
54539;SDS011;40438;52.992;18.604;2023-07-13T08:39:42;18.00;;;3.00;;
54539;SDS011;40438;52.992;18.604;2023-07-13T08:42:11;8.60;;;2.80;;
54539;SDS011;40438;52.992;18.604;2023-07-13T08:44:47;5.03;;;2.85;;
54539;SDS011;40438;52.992;18.604;2023-07-13T08:47:21;7.47;;;2.58;;
54539;SDS011;40438;52.992;18.604;2023-07-13T08:49:48;7.90;;;2.60;;
54539;SDS011;40438;52.992;18.604;2023-07-13T08:52:17;4.88;;;2.70;;
54539;SDS011;40438;52.992;18.604;2023-07-13T08:54:54;7.68;;;2.67;;
54539;SDS011;40438;52.992;18.604;2023-07-13T08:57:25;9.57;;;2.78;;
54539;SDS011;40438;52.992;18.604;2023-07-13T08:59:58;8.27;;;3.28;;
54539;SDS011;40438;52.992;18.604;2023-07-13T09:02:25;6.78;;;3.28;;
54539;SDS011;40438;52.992;18.604;2023-07-13T09:04:54;6.30;;;2.80;;
54539;SDS011;40438;52.992;18.604;2023-07-13T09:07:28;7.05;;;3.33;;
54539;SDS011;40438;52.992;18.604;2023-07-13T09:10:04;5.10;;;2.88;;
54539;SDS011;40438;52.992;18.604;2023-07-13T09:12:40;9.55;;;3.30;;
54539;SDS011;40438;52.992;18.604;2023-07-13T09:15:21;5.53;;;2.80;;
54539;SDS011;40438;52.992;18.604;2023-07-13T09:17:50;7.18;;;3.47;;
54539;SDS011;40438;52.992;18.604;2023-07-13T09:20:21;5.90;;;3.20;;
54539;SDS011;40438;52.992;18.604;2023-07-13T09:22:51;11.05;;;3.40;;
54539;SDS011;40438;52.992;18.604;2023-07-13T09:25:21;6.70;;;2.90;;
54539;SDS011;40438;52.992;18.604;2023-07-13T09:27:52;10.35;;;2.85;;
54539;SDS011;40438;52.992;18.604;2023-07-13T09:30:27;10.02;;;2.55;;
54539;SDS011;40438;52.992;18.604;2023-07-13T09:32:59;4.40;;;1.90;;
54539;SDS011;40438;52.992;18.604;2023-07-13T09:35:25;2.45;;;1.90;;
54539;SDS011;40438;52.992;18.604;2023-07-13T09:37:56;7.75;;;2.63;;
54539;SDS011;40438;52.992;18.604;2023-07-13T09:40:24;3.35;;;2.17;;
54539;SDS011;40438;52.992;18.604;2023-07-13T09:42:53;3.88;;;1.80;;
54539;SDS011;40438;52.992;18.604;2023-07-13T09:45:27;5.07;;;2.17;;
54539;SDS011;40438;52.992;18.604;2023-07-13T09:48:03;13.82;;;2.50;;
54539;SDS011;40438;52.992;18.604;2023-07-13T09:50:31;3.30;;;1.90;;
54539;SDS011;40438;52.992;18.604;2023-07-13T09:52:57;4.32;;;2.35;;
54539;SDS011;40438;52.992;18.604;2023-07-13T09:55:24;2.72;;;1.95;;
54539;SDS011;40438;52.992;18.604;2023-07-13T09:57:51;3.47;;;1.65;;
54539;SDS011;40438;52.992;18.604;2023-07-13T10:00:21;3.97;;;1.73;;
54539;SDS011;40438;52.992;18.604;2023-07-13T10:02:54;3.65;;;1.45;;
54539;SDS011;40438;52.992;18.604;2023-07-13T10:05:24;6.05;;;1.70;;
54539;SDS011;40438;52.992;18.604;2023-07-13T10:07:50;3.38;;;1.50;;
54539;SDS011;40438;52.992;18.604;2023-07-13T10:10:17;2.22;;;1.15;;
54539;SDS011;40438;52.992;18.604;2023-07-13T10:12:45;2.65;;;1.52;;
54539;SDS011;40438;52.992;18.604;2023-07-13T10:15:15;4.03;;;1.50;;
54539;SDS011;40438;52.992;18.604;2023-07-13T10:17:43;3.33;;;1.30;;
54539;SDS011;40438;52.992;18.604;2023-07-13T10:20:10;2.13;;;1.13;;
54539;SDS011;40438;52.992;18.604;2023-07-13T10:22:37;4.15;;;1.58;;
54539;SDS011;40438;52.992;18.604;2023-07-13T10:25:13;3.08;;;1.70;;
54539;SDS011;40438;52.992;18.604;2023-07-13T10:27:41;3.67;;;2.03;;
54539;SDS011;40438;52.992;18.604;2023-07-13T10:30:11;3.03;;;1.80;;
54539;SDS011;40438;52.992;18.604;2023-07-13T10:32:40;2.55;;;1.70;;
54539;SDS011;40438;52.992;18.604;2023-07-13T10:35:08;2.75;;;1.70;;
54539;SDS011;40438;52.992;18.604;2023-07-13T10:37:39;7.67;;;1.80;;
54539;SDS011;40438;52.992;18.604;2023-07-13T10:40:12;6.72;;;1.77;;
54539;SDS011;40438;52.992;18.604;2023-07-13T10:42:42;2.58;;;1.80;;
54539;SDS011;40438;52.992;18.604;2023-07-13T10:45:14;3.08;;;1.85;;
54539;SDS011;40438;52.992;18.604;2023-07-13T10:47:41;4.43;;;1.73;;
54539;SDS011;40438;52.992;18.604;2023-07-13T10:50:09;6.32;;;2.22;;
54539;SDS011;40438;52.992;18.604;2023-07-13T10:52:44;7.10;;;1.80;;
54539;SDS011;40438;52.992;18.604;2023-07-13T10:55:30;4.60;;;2.10;;
54539;SDS011;40438;52.992;18.604;2023-07-13T10:57:59;4.80;;;2.03;;
54539;SDS011;40438;52.992;18.604;2023-07-13T11:00:25;5.28;;;2.45;;
54539;SDS011;40438;52.992;18.604;2023-07-13T11:02:55;15.23;;;2.85;;
54539;SDS011;40438;52.992;18.604;2023-07-13T11:05:27;6.55;;;2.35;;
54539;SDS011;40438;52.992;18.604;2023-07-13T11:07:56;9.30;;;2.42;;
54539;SDS011;40438;52.992;18.604;2023-07-13T11:10:48;3.65;;;2.10;;
54539;SDS011;40438;52.992;18.604;2023-07-13T11:16:05;5.25;;;2.20;;
54539;SDS011;40438;52.992;18.604;2023-07-13T11:18:38;6.22;;;2.45;;
54539;SDS011;40438;52.992;18.604;2023-07-13T11:21:15;5.22;;;2.20;;
54539;SDS011;40438;52.992;18.604;2023-07-13T11:23:43;6.53;;;2.35;;
54539;SDS011;40438;52.992;18.604;2023-07-13T11:29:07;8.73;;;2.30;;
54539;SDS011;40438;52.992;18.604;2023-07-13T11:31:34;3.53;;;2.10;;
54539;SDS011;40438;52.992;18.604;2023-07-13T11:34:00;4.28;;;2.42;;
54539;SDS011;40438;52.992;18.604;2023-07-13T11:36:31;4.47;;;2.42;;
54539;SDS011;40438;52.992;18.604;2023-07-13T11:39:03;3.70;;;2.70;;
54539;SDS011;40438;52.992;18.604;2023-07-13T11:41:32;5.38;;;2.78;;
54539;SDS011;40438;52.992;18.604;2023-07-13T11:44:10;12.13;;;2.80;;
54539;SDS011;40438;52.992;18.604;2023-07-13T11:46:38;5.55;;;2.75;;
54539;SDS011;40438;52.992;18.604;2023-07-13T11:49:04;5.28;;;2.60;;
54539;SDS011;40438;52.992;18.604;2023-07-13T11:51:32;4.53;;;3.08;;
54539;SDS011;40438;52.992;18.604;2023-07-13T11:54:01;6.25;;;3.30;;
54539;SDS011;40438;52.992;18.604;2023-07-13T11:56:30;5.68;;;3.10;;
54539;SDS011;40438;52.992;18.604;2023-07-13T11:58:56;7.65;;;2.65;;
54539;SDS011;40438;52.992;18.604;2023-07-13T12:01:23;6.53;;;2.63;;
54539;SDS011;40438;52.992;18.604;2023-07-13T12:03:51;4.63;;;3.00;;
54539;SDS011;40438;52.992;18.604;2023-07-13T12:06:28;6.55;;;2.78;;
54539;SDS011;40438;52.992;18.604;2023-07-13T12:08:59;6.60;;;2.58;;
54539;SDS011;40438;52.992;18.604;2023-07-13T12:11:26;8.75;;;5.20;;
54539;SDS011;40438;52.992;18.604;2023-07-13T12:13:52;4.70;;;2.95;;
54539;SDS011;40438;52.992;18.604;2023-07-13T12:16:21;4.07;;;2.55;;
54539;SDS011;40438;52.992;18.604;2023-07-13T12:18:53;8.00;;;3.83;;
54539;SDS011;40438;52.992;18.604;2023-07-13T12:21:19;5.38;;;2.58;;
54539;SDS011;40438;52.992;18.604;2023-07-13T12:23:48;7.63;;;2.20;;
54539;SDS011;40438;52.992;18.604;2023-07-13T12:26:16;4.53;;;2.50;;
54539;SDS011;40438;52.992;18.604;2023-07-13T12:28:44;6.18;;;3.28;;
54539;SDS011;40438;52.992;18.604;2023-07-13T12:31:22;4.40;;;2.60;;
54539;SDS011;40438;52.992;18.604;2023-07-13T12:33:55;6.22;;;2.55;;
54539;SDS011;40438;52.992;18.604;2023-07-13T12:36:22;4.68;;;2.72;;
54539;SDS011;40438;52.992;18.604;2023-07-13T12:38:48;2.92;;;2.35;;
54539;SDS011;40438;52.992;18.604;2023-07-13T12:41:15;3.95;;;2.40;;
54539;SDS011;40438;52.992;18.604;2023-07-13T12:43:41;5.90;;;1.80;;
54539;SDS011;40438;52.992;18.604;2023-07-13T12:46:14;4.85;;;2.17;;
54539;SDS011;40438;52.992;18.604;2023-07-13T12:48:43;2.83;;;2.08;;
54539;SDS011;40438;52.992;18.604;2023-07-13T12:51:09;4.55;;;2.22;;
54539;SDS011;40438;52.992;18.604;2023-07-13T12:53:38;4.72;;;2.15;;
54539;SDS011;40438;52.992;18.604;2023-07-13T12:56:08;4.32;;;2.17;;
54539;SDS011;40438;52.992;18.604;2023-07-13T12:58:43;5.78;;;2.63;;
54539;SDS011;40438;52.992;18.604;2023-07-13T13:01:11;4.78;;;2.28;;
54539;SDS011;40438;52.992;18.604;2023-07-13T13:03:39;5.95;;;2.72;;
54539;SDS011;40438;52.992;18.604;2023-07-13T13:06:20;4.10;;;2.10;;
54539;SDS011;40438;52.992;18.604;2023-07-13T13:08:48;5.38;;;2.10;;
54539;SDS011;40438;52.992;18.604;2023-07-13T13:11:17;2.95;;;1.60;;
54539;SDS011;40438;52.992;18.604;2023-07-13T13:13:43;3.28;;;1.75;;
54539;SDS011;40438;52.992;18.604;2023-07-13T13:16:09;3.35;;;1.60;;
54539;SDS011;40438;52.992;18.604;2023-07-13T13:18:39;4.50;;;1.92;;
54539;SDS011;40438;52.992;18.604;2023-07-13T13:21:05;3.25;;;2.00;;
54539;SDS011;40438;52.992;18.604;2023-07-13T13:23:31;3.42;;;2.00;;
54539;SDS011;40438;52.992;18.604;2023-07-13T13:25:56;3.50;;;2.00;;
54539;SDS011;40438;52.992;18.604;2023-07-13T13:28:24;4.82;;;2.38;;
54539;SDS011;40438;52.992;18.604;2023-07-13T13:30:50;5.50;;;2.55;;
54539;SDS011;40438;52.992;18.604;2023-07-13T13:33:17;8.18;;;2.58;;
54539;SDS011;40438;52.992;18.604;2023-07-13T13:35:45;5.03;;;2.75;;
54539;SDS011;40438;52.992;18.604;2023-07-13T13:38:12;3.95;;;2.17;;
54539;SDS011;40438;52.992;18.604;2023-07-13T13:40:38;6.57;;;2.78;;
54539;SDS011;40438;52.992;18.604;2023-07-13T13:43:08;5.90;;;2.78;;
54539;SDS011;40438;52.992;18.604;2023-07-13T13:45:40;3.42;;;2.97;;
54539;SDS011;40438;52.992;18.604;2023-07-13T13:48:06;7.00;;;3.60;;
54539;SDS011;40438;52.992;18.604;2023-07-13T13:50:38;7.75;;;3.40;;
54539;SDS011;40438;52.992;18.604;2023-07-13T13:53:04;7.55;;;3.28;;
54539;SDS011;40438;52.992;18.604;2023-07-13T13:55:30;5.55;;;3.35;;
54539;SDS011;40438;52.992;18.604;2023-07-13T13:57:55;9.07;;;3.10;;
54539;SDS011;40438;52.992;18.604;2023-07-13T14:00:21;8.15;;;3.50;;
54539;SDS011;40438;52.992;18.604;2023-07-13T14:02:48;8.40;;;3.50;;
54539;SDS011;40438;52.992;18.604;2023-07-13T14:05:15;9.85;;;2.97;;
54539;SDS011;40438;52.992;18.604;2023-07-13T14:07:45;5.30;;;3.00;;
54539;SDS011;40438;52.992;18.604;2023-07-13T14:10:11;4.22;;;3.00;;
54539;SDS011;40438;52.992;18.604;2023-07-13T14:12:39;7.53;;;3.00;;
54539;SDS011;40438;52.992;18.604;2023-07-13T14:15:05;3.10;;;2.78;;
54539;SDS011;40438;52.992;18.604;2023-07-13T14:17:37;6.75;;;2.58;;
54539;SDS011;40438;52.992;18.604;2023-07-13T14:20:09;4.68;;;2.90;;
54539;SDS011;40438;52.992;18.604;2023-07-13T14:22:36;3.53;;;2.17;;
54539;SDS011;40438;52.992;18.604;2023-07-13T14:25:02;3.35;;;1.92;;
54539;SDS011;40438;52.992;18.604;2023-07-13T14:27:28;6.47;;;2.03;;
54539;SDS011;40438;52.992;18.604;2023-07-13T14:29:54;4.32;;;2.10;;
54539;SDS011;40438;52.992;18.604;2023-07-13T14:32:19;2.75;;;2.10;;
54539;SDS011;40438;52.992;18.604;2023-07-13T14:34:45;3.25;;;2.30;;